createdAt,value
2017-11-29T00:00:25.103Z,72.70
2017-11-29T00:02:51.324Z,72.70
2017-11-29T00:05:17.566Z,73.20
2017-11-29T00:07:43.791Z,73.50
2017-11-29T00:10:10.089Z,73.40
2017-11-29T00:12:36.315Z,73.30
2017-11-29T00:15:02.580Z,73.40
2017-11-29T00:17:28.763Z,73.30
2017-11-29T00:19:55.874Z,73.40
2017-11-29T00:22:22.042Z,73.40
2017-11-29T00:24:48.301Z,73.30
2017-11-29T00:27:14.585Z,72.90
2017-11-29T00:29:40.846Z,73.60
2017-11-29T00:32:07.194Z,72.70
2017-11-29T00:34:33.538Z,72.60
2017-11-29T00:36:59.759Z,72.30
2017-11-29T00:39:25.986Z,72.50
2017-11-29T00:41:52.337Z,72.40
2017-11-29T00:44:18.658Z,72.20
2017-11-29T00:46:44.894Z,71.90
2017-11-29T00:49:11.160Z,71.10
2017-11-29T00:51:37.411Z,71.70
2017-11-29T00:54:03.696Z,72.00
2017-11-29T00:56:29.894Z,71.80
2017-11-29T00:58:56.143Z,72.20
2017-11-29T01:01:22.399Z,71.90
2017-11-29T01:03:48.650Z,71.90
2017-11-29T01:06:14.926Z,72.20
2017-11-29T01:08:41.102Z,72.40
2017-11-29T01:11:07.430Z,72.10
2017-11-29T01:13:33.612Z,72.50
2017-11-29T01:15:59.790Z,72.30
2017-11-29T01:18:25.995Z,72.40
2017-11-29T01:20:53.108Z,72.40
2017-11-29T01:23:19.321Z,72.40
2017-11-29T01:25:45.521Z,72.40
2017-11-29T01:28:11.803Z,72.40
2017-11-29T01:30:37.974Z,71.50
2017-11-29T01:33:04.198Z,72.10
2017-11-29T01:35:30.497Z,72.10
2017-11-29T01:37:56.766Z,71.80
2017-11-29T01:40:23.728Z,71.10
2017-11-29T01:42:49.954Z,71.00
2017-11-29T01:45:16.197Z,71.30
2017-11-29T01:47:42.427Z,71.80
2017-11-29T01:50:09.428Z,72.40
2017-11-29T01:52:35.665Z,72.40
2017-11-29T01:55:01.920Z,72.50
2017-11-29T01:57:28.129Z,72.40
2017-11-29T01:59:54.406Z,73.10
2017-11-29T02:02:20.631Z,73.20
2017-11-29T02:04:46.943Z,73.30
2017-11-29T02:07:13.174Z,72.90
2017-11-29T02:09:40.193Z,72.80
2017-11-29T02:12:06.579Z,72.80
2017-11-29T02:14:32.838Z,72.50
2017-11-29T02:16:59.086Z,72.50
2017-11-29T02:19:25.326Z,73.10
2017-11-29T02:21:51.561Z,73.00
2017-11-29T02:24:17.783Z,72.70
2017-11-29T02:26:44.035Z,72.80
2017-11-29T02:29:10.319Z,72.60
2017-11-29T02:31:36.540Z,72.70
2017-11-29T02:34:02.776Z,72.70
2017-11-29T02:36:29.074Z,72.70
2017-11-29T02:38:55.385Z,72.70
2017-11-29T02:41:33.669Z,72.70
2017-11-29T02:44:00.660Z,72.00
2017-11-29T02:46:27.668Z,72.40
2017-11-29T02:48:53.911Z,72.40
2017-11-29T02:51:20.193Z,72.60
2017-11-29T02:53:46.437Z,72.40
2017-11-29T02:56:12.683Z,72.20
2017-11-29T02:58:39.794Z,73.10
2017-11-29T03:01:05.999Z,72.20
2017-11-29T03:03:32.199Z,72.20
2017-11-29T03:05:59.249Z,72.20
2017-11-29T03:08:25.471Z,72.30
2017-11-29T03:10:51.696Z,72.60
2017-11-29T03:13:18.775Z,72.50
2017-11-29T03:15:44.949Z,72.50
2017-11-29T03:18:11.916Z,72.80
2017-11-29T03:20:38.127Z,72.70
2017-11-29T03:23:04.416Z,72.20
2017-11-29T03:25:31.364Z,72.30
2017-11-29T03:27:57.571Z,72.30
2017-11-29T03:30:23.906Z,72.20
2017-11-29T03:32:50.821Z,72.10
2017-11-29T03:35:17.077Z,72.10
2017-11-29T03:37:43.291Z,72.30
2017-11-29T03:40:09.506Z,72.40
2017-11-29T03:42:35.683Z,72.60
2017-11-29T03:45:02.077Z,72.80
2017-11-29T03:47:29.017Z,72.20
2017-11-29T03:49:55.254Z,72.30
2017-11-29T03:52:21.561Z,72.50
2017-11-29T03:54:47.769Z,72.30
2017-11-29T03:57:14.054Z,72.60
2017-11-29T03:59:41.014Z,72.60
2017-11-29T04:02:07.258Z,72.60
2017-11-29T04:04:33.487Z,73.00
2017-11-29T04:06:59.782Z,72.90
2017-11-29T04:09:26.068Z,72.90
2017-11-29T04:11:52.370Z,72.90
2017-11-29T04:14:18.653Z,72.80
2017-11-29T04:16:44.877Z,73.20
2017-11-29T04:19:11.094Z,73.10
2017-11-29T04:21:37.318Z,73.20
2017-11-29T04:24:03.555Z,73.20
2017-11-29T04:26:29.843Z,72.80
2017-11-29T04:28:56.129Z,72.60
2017-11-29T04:31:22.326Z,73.00
2017-11-29T04:33:48.517Z,73.00
2017-11-29T04:36:14.718Z,72.60
2017-11-29T04:38:40.994Z,72.70
2017-11-29T04:41:07.169Z,72.80
2017-11-29T04:43:33.409Z,72.80
2017-11-29T04:45:59.698Z,72.80
2017-11-29T04:48:25.971Z,72.40
2017-11-29T04:50:53.060Z,72.20
2017-11-29T04:53:19.373Z,72.10
2017-11-29T04:55:45.643Z,72.20
2017-11-29T04:58:11.875Z,71.30
2017-11-29T05:00:38.086Z,71.40
2017-11-29T05:03:04.420Z,70.80
2017-11-29T05:05:30.642Z,71.40
2017-11-29T05:07:56.959Z,71.60
2017-11-29T05:10:23.183Z,71.60
2017-11-29T05:12:49.401Z,71.70
2017-11-29T05:15:15.654Z,71.60
2017-11-29T05:17:41.982Z,71.40
2017-11-29T05:20:08.324Z,71.70
2017-11-29T05:22:34.590Z,71.70
2017-11-29T05:25:01.567Z,71.60
2017-11-29T05:27:27.917Z,71.60
2017-11-29T05:29:54.150Z,71.80
2017-11-29T05:32:21.160Z,72.10
2017-11-29T05:34:47.417Z,72.10
2017-11-29T05:37:13.695Z,71.90
2017-11-29T05:39:39.943Z,72.40
2017-11-29T05:42:06.151Z,73.10
2017-11-29T05:44:32.450Z,72.40
2017-11-29T05:46:58.685Z,72.10
2017-11-29T05:49:24.905Z,72.10
2017-11-29T05:51:52.159Z,72.20
2017-11-29T05:54:18.545Z,72.30
2017-11-29T05:56:44.998Z,72.50
2017-11-29T05:59:11.240Z,72.10
2017-11-29T06:01:37.557Z,72.20
2017-11-29T06:04:03.754Z,72.20
2017-11-29T06:06:30.051Z,72.20
2017-11-29T06:08:56.346Z,72.30
2017-11-29T06:11:22.573Z,72.70
2017-11-29T06:13:48.786Z,73.00
2017-11-29T06:16:15.119Z,73.10
2017-11-29T06:18:41.367Z,72.60
2017-11-29T06:21:07.566Z,73.00
2017-11-29T06:23:33.848Z,73.00
2017-11-29T06:26:00.449Z,71.90
2017-11-29T06:28:26.673Z,72.20
2017-11-29T06:30:53.070Z,72.10
2017-11-29T06:33:20.187Z,72.10
2017-11-29T06:35:47.155Z,71.80
2017-11-29T06:38:13.335Z,71.80
2017-11-29T06:40:40.334Z,71.60
2017-11-29T06:43:06.519Z,71.60
2017-11-29T06:45:32.826Z,71.40
2017-11-29T06:47:59.019Z,71.60
2017-11-29T06:50:25.380Z,72.40
2017-11-29T06:52:51.597Z,71.70
2017-11-29T06:55:17.823Z,71.20
2017-11-29T06:57:44.047Z,71.50
2017-11-29T07:00:10.253Z,71.20
2017-11-29T07:02:36.441Z,72.00
2017-11-29T07:05:02.661Z,71.30
2017-11-29T07:07:28.934Z,71.60
2017-11-29T07:09:55.176Z,72.00
2017-11-29T07:12:21.432Z,71.90
2017-11-29T07:14:47.678Z,72.60
2017-11-29T07:17:13.983Z,72.00
2017-11-29T07:19:40.219Z,71.50
2017-11-29T07:22:06.398Z,71.60
2017-11-29T07:24:32.641Z,71.90
2017-11-29T07:26:58.891Z,72.20
2017-11-29T07:29:25.163Z,72.10
2017-11-29T07:31:51.466Z,72.50
2017-11-29T07:34:17.707Z,72.70
2017-11-29T07:36:43.945Z,72.40
2017-11-29T07:39:10.209Z,72.40
2017-11-29T07:41:36.402Z,72.40
2017-11-29T07:44:02.636Z,72.20
2017-11-29T07:46:29.566Z,71.70
2017-11-29T07:48:56.523Z,72.00
2017-11-29T07:51:22.754Z,71.90
2017-11-29T07:53:49.030Z,72.30
2017-11-29T07:56:15.271Z,72.20
2017-11-29T07:58:41.501Z,72.30
2017-11-29T08:01:07.762Z,72.40
2017-11-29T08:03:34.815Z,72.70
2017-11-29T08:06:01.069Z,72.70
2017-11-29T08:08:27.268Z,72.70
2017-11-29T08:10:53.503Z,73.00
2017-11-29T08:13:19.797Z,72.40
2017-11-29T08:15:46.039Z,72.60
2017-11-29T08:18:12.268Z,72.20
2017-11-29T08:20:39.271Z,72.30
2017-11-29T08:23:05.520Z,72.30
2017-11-29T08:25:32.530Z,72.10
2017-11-29T08:27:58.858Z,72.10
2017-11-29T08:30:25.838Z,72.00
2017-11-29T08:32:55.916Z,71.90
2017-11-29T08:35:22.184Z,72.00
2017-11-29T08:37:48.499Z,72.30
2017-11-29T08:40:14.793Z,72.10
2017-11-29T08:42:41.065Z,71.60
2017-11-29T08:45:08.063Z,72.00
2017-11-29T08:47:34.350Z,72.00
2017-11-29T08:50:00.613Z,72.20
2017-11-29T08:52:26.867Z,72.30
2017-11-29T08:54:53.386Z,71.80
2017-11-29T08:57:19.876Z,72.00
2017-11-29T08:59:46.867Z,72.20
2017-11-29T09:02:13.145Z,72.20
2017-11-29T09:04:39.363Z,72.40
2017-11-29T09:07:05.615Z,71.90
2017-11-29T09:09:31.841Z,72.10
2017-11-29T09:11:58.160Z,72.50
2017-11-29T09:14:24.398Z,71.40
2017-11-29T09:16:51.355Z,72.60
2017-11-29T09:19:17.733Z,72.60
2017-11-29T09:21:43.998Z,72.20
2017-11-29T09:24:11.052Z,70.70
2017-11-29T09:26:37.393Z,70.70
2017-11-29T09:29:03.600Z,70.90
2017-11-29T09:31:29.827Z,71.30
2017-11-29T09:33:56.219Z,71.90
2017-11-29T09:36:22.442Z,71.00
2017-11-29T09:38:48.655Z,71.00
2017-11-29T09:41:14.903Z,71.00
2017-11-29T09:43:41.237Z,71.10
2017-11-29T09:46:09.522Z,71.50
2017-11-29T09:48:35.749Z,71.50
2017-11-29T09:51:02.034Z,71.60
2017-11-29T09:53:28.270Z,70.70
2017-11-29T09:56:02.511Z,69.30
2017-11-29T09:58:28.935Z,71.00
2017-11-29T10:00:57.436Z,70.80
2017-11-29T10:03:23.768Z,71.10
2017-11-29T10:05:50.135Z,70.10
2017-11-29T10:08:17.949Z,70.50
2017-11-29T10:10:44.396Z,69.00
2017-11-29T10:13:10.807Z,68.90
2017-11-29T10:15:37.282Z,70.10
2017-11-29T10:18:03.606Z,69.50
2017-11-29T10:20:29.910Z,70.30
2017-11-29T10:22:56.186Z,70.00
2017-11-29T10:25:22.460Z,69.90
2017-11-29T10:27:48.696Z,69.90
2017-11-29T10:30:15.705Z,69.20
2017-11-29T10:32:41.973Z,69.20
2017-11-29T10:35:08.242Z,70.40
2017-11-29T10:37:34.590Z,70.00
2017-11-29T10:40:01.583Z,69.70
2017-11-29T10:42:27.784Z,69.70
2017-11-29T10:44:54.033Z,70.10
2017-11-29T10:47:20.227Z,69.90
2017-11-29T10:49:46.462Z,70.30
2017-11-29T10:52:13.466Z,69.30
2017-11-29T10:54:39.709Z,69.20
2017-11-29T10:57:06.763Z,69.30
2017-11-29T10:59:33.062Z,69.20
2017-11-29T11:01:59.548Z,69.20
2017-11-29T11:04:25.917Z,69.40
2017-11-29T11:06:52.150Z,69.30
2017-11-29T11:09:18.390Z,69.40
2017-11-29T11:11:44.615Z,69.40
2017-11-29T11:14:10.848Z,68.20
2017-11-29T11:16:37.101Z,68.50
2017-11-29T11:19:03.310Z,69.40
2017-11-29T11:21:29.523Z,68.20
2017-11-29T11:23:55.883Z,68.30
2017-11-29T11:26:22.154Z,67.70
2017-11-29T11:28:48.377Z,68.80
2017-11-29T11:31:14.718Z,68.10
2017-11-29T11:33:40.998Z,67.50
2017-11-29T11:36:07.261Z,68.40
2017-11-29T11:38:33.488Z,67.50
2017-11-29T11:40:59.786Z,67.20
2017-11-29T11:43:26.044Z,67.00
2017-11-29T11:45:52.356Z,66.80
2017-11-29T11:48:18.610Z,68.60
2017-11-29T11:50:44.856Z,67.50
2017-11-29T11:53:11.101Z,66.90
2017-11-29T11:55:37.338Z,68.00
2017-11-29T11:58:03.717Z,67.50
2017-11-29T12:00:30.787Z,67.50
2017-11-29T12:02:57.394Z,67.40
2017-11-29T12:05:23.714Z,67.30
2017-11-29T12:07:49.972Z,66.00
2017-11-29T12:10:16.201Z,66.70
2017-11-29T12:12:42.583Z,65.90
2017-11-29T12:15:08.816Z,65.70
2017-11-29T12:17:35.058Z,66.10
2017-11-29T12:20:02.143Z,64.70
2017-11-29T12:22:28.449Z,64.70
2017-11-29T12:24:54.714Z,63.80
2017-11-29T12:27:21.722Z,63.10
2017-11-29T12:29:48.043Z,63.10
2017-11-29T12:32:14.255Z,63.50
2017-11-29T12:34:40.597Z,64.70
2017-11-29T12:37:07.560Z,62.30
2017-11-29T12:39:33.802Z,62.30
2017-11-29T12:42:00.093Z,63.10
2017-11-29T12:44:26.374Z,63.40
2017-11-29T12:46:53.500Z,62.30
2017-11-29T12:49:31.974Z,62.30
2017-11-29T12:51:58.510Z,62.70
2017-11-29T12:54:24.766Z,63.50
2017-11-29T12:56:51.030Z,63.90
2017-11-29T12:59:17.276Z,63.30
2017-11-29T13:01:43.605Z,63.90
2017-11-29T13:04:09.867Z,64.40
2017-11-29T13:06:36.144Z,64.60
2017-11-29T13:09:02.499Z,64.50
2017-11-29T13:11:28.742Z,64.60
2017-11-29T13:13:55.722Z,64.60
2017-11-29T13:16:22.123Z,64.60
2017-11-29T13:18:48.373Z,64.80
2017-11-29T13:21:14.642Z,64.60
2017-11-29T13:23:40.905Z,64.10
2017-11-29T13:26:07.246Z,63.60
2017-11-29T13:28:33.465Z,63.10
2017-11-29T13:30:59.712Z,64.60
2017-11-29T13:33:26.083Z,64.60
2017-11-29T13:35:52.292Z,64.30
2017-11-29T13:38:18.589Z,64.60
2017-11-29T13:40:44.851Z,64.00
2017-11-29T13:43:11.189Z,64.10
2017-11-29T13:45:37.533Z,64.60
2017-11-29T13:48:03.806Z,64.60
2017-11-29T13:50:30.011Z,65.00
2017-11-29T13:52:56.322Z,62.60
2017-11-29T13:55:23.347Z,61.70
2017-11-29T13:57:49.543Z,61.70
2017-11-29T14:00:15.805Z,60.20
2017-11-29T14:02:42.048Z,60.60
2017-11-29T14:05:08.328Z,61.70
2017-11-29T14:07:35.074Z,59.90
2017-11-29T14:10:01.523Z,61.10
2017-11-29T14:12:27.806Z,61.20
2017-11-29T14:14:54.083Z,62.30
2017-11-29T14:17:20.316Z,61.60
2017-11-29T14:19:46.556Z,61.80
2017-11-29T14:22:12.770Z,62.00
2017-11-29T14:24:40.517Z,61.90
2017-11-29T14:27:06.812Z,61.90
2017-11-29T14:29:33.105Z,59.50
2017-11-29T14:31:59.434Z,60.60
2017-11-29T14:34:25.709Z,59.60
2017-11-29T14:36:52.355Z,59.60
2017-11-29T14:39:19.661Z,59.60
2017-11-29T14:41:46.076Z,59.70
2017-11-29T14:44:13.203Z,57.90
2017-11-29T14:46:42.697Z,58.00
2017-11-29T14:49:08.971Z,58.20
2017-11-29T14:51:35.182Z,58.50
2017-11-29T14:54:01.532Z,59.40
2017-11-29T14:56:27.932Z,59.40
2017-11-29T14:58:54.335Z,59.40
2017-11-29T15:01:20.592Z,59.30
2017-11-29T15:03:46.854Z,59.20
2017-11-29T15:06:13.174Z,61.60
2017-11-29T15:08:39.353Z,62.40
2017-11-29T15:11:05.743Z,63.80
2017-11-29T15:13:31.990Z,63.80
2017-11-29T15:15:58.204Z,64.90
2017-11-29T15:18:25.216Z,64.50
2017-11-29T15:20:51.454Z,64.40
2017-11-29T15:23:17.674Z,64.40
2017-11-29T15:25:43.833Z,64.40
2017-11-29T15:28:10.165Z,64.90
2017-11-29T15:30:36.399Z,65.00
2017-11-29T15:33:02.614Z,64.60
2017-11-29T15:35:30.411Z,65.00
2017-11-29T15:37:56.664Z,65.00
2017-11-29T15:40:22.929Z,65.10
2017-11-29T15:42:49.228Z,64.70
2017-11-29T15:45:15.538Z,65.80
2017-11-29T15:47:42.462Z,66.00
2017-11-29T15:50:09.040Z,66.00
2017-11-29T15:52:35.266Z,65.60
2017-11-29T15:55:01.504Z,66.20
2017-11-29T15:57:27.770Z,66.80
2017-11-29T15:59:54.029Z,67.20
2017-11-29T16:02:20.320Z,66.80
2017-11-29T16:04:46.659Z,67.40
2017-11-29T16:07:13.007Z,68.00
2017-11-29T16:09:39.306Z,68.00
2017-11-29T16:12:06.671Z,68.10
2017-11-29T16:14:32.939Z,68.10
2017-11-29T16:16:59.149Z,68.10
2017-11-29T16:19:25.407Z,68.10
2017-11-29T16:21:51.728Z,68.10
2017-11-29T16:24:18.060Z,68.10
2017-11-29T16:26:44.336Z,68.20
2017-11-29T16:29:10.603Z,67.60
2017-11-29T16:31:36.916Z,67.10
2017-11-29T16:34:03.183Z,68.20
2017-11-29T16:36:29.472Z,67.20
2017-11-29T16:38:55.707Z,67.30
2017-11-29T16:41:21.983Z,67.60
2017-11-29T16:43:48.234Z,67.30
2017-11-29T16:46:15.238Z,64.80
2017-11-29T16:48:41.510Z,64.70
2017-11-29T16:51:07.721Z,63.10
2017-11-29T16:53:34.072Z,63.40
2017-11-29T16:56:00.377Z,63.40
2017-11-29T16:58:26.735Z,62.90
2017-11-29T17:00:52.937Z,63.40
2017-11-29T17:03:19.198Z,62.40
2017-11-29T17:05:45.618Z,61.90
2017-11-29T17:08:11.843Z,62.30
2017-11-29T17:13:09.251Z,61.70
2017-11-29T17:15:35.583Z,60.50
2017-11-29T17:18:01.825Z,60.70
2017-11-29T17:20:28.070Z,60.90
2017-11-29T17:22:54.315Z,60.70
2017-11-29T17:25:20.647Z,60.20
2017-11-29T17:27:46.976Z,58.50
2017-11-29T17:30:13.268Z,59.40
2017-11-29T17:35:10.635Z,60.20
2017-11-29T17:37:36.995Z,59.30
2017-11-29T17:40:03.271Z,58.50
2017-11-29T17:42:29.715Z,58.50
2017-11-29T17:44:55.968Z,58.40
2017-11-29T17:47:22.475Z,58.40
2017-11-29T17:49:49.548Z,59.30
2017-11-29T17:52:15.914Z,59.40
2017-11-29T17:54:42.230Z,59.30
2017-11-29T17:57:09.448Z,59.70
2017-11-29T17:59:35.824Z,59.60
2017-11-29T18:02:02.165Z,60.00
2017-11-29T18:07:00.863Z,60.40
2017-11-29T18:09:27.314Z,60.90
2017-11-29T18:11:53.814Z,60.10
2017-11-29T18:14:20.029Z,61.30
2017-11-29T18:16:46.287Z,60.40
2017-11-29T18:19:12.556Z,61.90
2017-11-29T18:21:39.716Z,62.00
2017-11-29T18:24:06.104Z,62.00
2017-11-29T18:26:32.485Z,61.90
2017-11-29T18:28:58.744Z,61.70
2017-11-29T18:31:25.751Z,62.30
2017-11-29T18:33:52.014Z,62.40
2017-11-29T18:36:18.342Z,62.10
2017-11-29T18:38:44.598Z,62.70
2017-11-29T18:41:10.839Z,62.40
2017-11-29T18:43:37.088Z,62.50
2017-11-29T18:46:03.482Z,62.10
2017-11-29T18:48:29.753Z,61.90
2017-11-29T18:50:56.015Z,64.30
2017-11-29T18:53:22.474Z,63.00
2017-11-29T18:55:48.688Z,64.60
2017-11-29T18:58:15.057Z,65.40
2017-11-29T19:00:41.277Z,65.80
2017-11-29T19:03:07.574Z,65.90
2017-11-29T19:05:34.583Z,65.80
2017-11-29T19:10:34.438Z,66.50
2017-11-29T19:13:00.659Z,66.80
2017-11-29T19:15:26.924Z,66.50
2017-11-29T19:17:53.903Z,67.20
2017-11-29T19:20:20.191Z,66.50
2017-11-29T19:22:46.415Z,66.00
2017-11-29T19:25:12.740Z,65.40
2017-11-29T19:27:39.010Z,64.90
2017-11-29T19:30:05.304Z,65.20
2017-11-29T19:32:31.715Z,66.90
2017-11-29T19:34:58.778Z,65.60
2017-11-29T19:37:26.093Z,64.70
2017-11-29T19:39:52.416Z,64.70
2017-11-29T19:42:18.663Z,64.30
2017-11-29T19:44:44.973Z,63.10
2017-11-29T19:47:11.203Z,62.60
2017-11-29T19:49:38.174Z,61.30
2017-11-29T19:52:04.699Z,61.30
2017-11-29T19:54:30.975Z,61.80
2017-11-29T19:56:57.879Z,60.60
2017-11-29T19:59:25.115Z,60.60
2017-11-29T20:01:51.612Z,61.90
2017-11-29T20:04:18.430Z,62.00
2017-11-29T20:06:44.774Z,62.50
2017-11-29T20:09:11.849Z,62.10
2017-11-29T20:11:38.151Z,62.10
2017-11-29T20:14:04.394Z,63.30
2017-11-29T20:16:30.873Z,62.80
2017-11-29T20:18:57.194Z,63.40
2017-11-29T20:21:23.500Z,63.90
2017-11-29T20:23:50.153Z,63.70
2017-11-29T20:26:16.399Z,64.10
2017-11-29T20:28:42.687Z,64.10
2017-11-29T20:31:08.938Z,64.40
2017-11-29T20:33:35.255Z,65.00
2017-11-29T20:36:01.507Z,65.40
2017-11-29T20:38:27.785Z,65.70
2017-11-29T20:40:54.031Z,65.50
2017-11-29T20:43:20.262Z,66.50
2017-11-29T20:45:46.490Z,64.90
2017-11-29T20:48:12.856Z,65.90
2017-11-29T20:50:39.129Z,66.30
2017-11-29T20:53:08.215Z,66.40
2017-11-29T20:55:34.492Z,66.70
2017-11-29T20:58:30.306Z,68.40
2017-11-29T21:00:57.769Z,67.50
2017-11-29T21:03:25.571Z,67.40
2017-11-29T21:05:51.962Z,67.40
2017-11-29T21:08:18.242Z,67.30
2017-11-29T21:10:44.575Z,67.30
2017-11-29T21:13:10.840Z,67.90
2017-11-29T21:15:37.858Z,67.50
2017-11-29T21:18:04.394Z,67.50
2017-11-29T21:20:30.654Z,67.30
2017-11-29T21:22:56.894Z,67.30
2017-11-29T21:25:23.134Z,67.20
2017-11-29T21:27:50.104Z,67.50
2017-11-29T21:30:16.319Z,67.50
2017-11-29T21:32:42.535Z,67.80
2017-11-29T21:35:08.744Z,67.70
2017-11-29T21:37:35.018Z,67.70
2017-11-29T21:40:01.202Z,67.90
2017-11-29T21:42:27.433Z,68.70
2017-11-29T21:44:54.377Z,68.80
2017-11-29T21:47:20.589Z,68.70
2017-11-29T21:49:46.835Z,68.90
2017-11-29T21:52:13.014Z,69.10
2017-11-29T21:54:39.244Z,69.10
2017-11-29T21:57:05.476Z,69.00
2017-11-29T21:59:31.742Z,69.60
2017-11-29T22:01:58.742Z,69.40
2017-11-29T22:04:24.948Z,69.30
2017-11-29T22:06:51.214Z,69.70
2017-11-29T22:09:17.561Z,69.50
2017-11-29T22:11:43.758Z,69.50
2017-11-29T22:14:09.974Z,68.60
2017-11-29T22:16:36.283Z,68.40
2017-11-29T22:19:02.522Z,68.30
2017-11-29T22:21:28.740Z,68.30
2017-11-29T22:23:54.993Z,68.10
2017-11-29T22:26:21.220Z,69.10
2017-11-29T22:28:48.238Z,68.20
2017-11-29T22:31:15.169Z,68.40
2017-11-29T22:33:42.177Z,67.60
2017-11-29T22:36:09.431Z,67.50
2017-11-29T22:38:35.640Z,66.90
2017-11-29T22:41:01.840Z,67.90
2017-11-29T22:43:28.050Z,68.10
2017-11-29T22:45:54.302Z,68.40
2017-11-29T22:48:20.483Z,68.00
2017-11-29T22:50:46.675Z,68.70
2017-11-29T22:53:13.735Z,68.80
2017-11-29T22:55:39.942Z,68.70
2017-11-29T22:58:06.126Z,68.50
2017-11-29T23:00:32.365Z,68.30
2017-11-29T23:02:58.623Z,69.40
2017-11-29T23:05:24.824Z,68.50
2017-11-29T23:07:51.028Z,68.80
2017-11-29T23:10:17.303Z,69.30
2017-11-29T23:12:43.505Z,68.90
2017-11-29T23:15:09.727Z,69.70
2017-11-29T23:17:36.693Z,70.00
2017-11-29T23:20:02.934Z,69.20
2017-11-29T23:22:29.176Z,68.90
2017-11-29T23:24:55.383Z,69.20
2017-11-29T23:27:21.604Z,68.90
2017-11-29T23:29:47.831Z,68.90
2017-11-29T23:32:14.092Z,69.80
2017-11-29T23:34:40.293Z,69.10
2017-11-29T23:37:06.496Z,69.30
2017-11-29T23:39:32.715Z,69.20
2017-11-29T23:41:58.913Z,69.10
2017-11-29T23:44:25.091Z,69.60
2017-11-29T23:46:51.295Z,69.40
2017-11-29T23:49:17.738Z,69.30
2017-11-29T23:51:44.686Z,69.20
2017-11-29T23:54:10.891Z,69.20
2017-11-29T23:56:37.085Z,69.60
2017-11-29T23:59:03.305Z,69.40
